Monday, March 19, 2018, 1:27 AM GMT
Back to Local

CYYG, Charlottetown, P. E. I.

Location: , , Canada Lat: 46.283
Local Time: 1:27 AM GMT ( 1:27 GMT) Lon: -63.133
Time Zone: GMT Elev: 157 ft

Show me the last for .
Show Decoded

2018-03-19 01:00 METAR CYYG 190100Z 26004KT 15SM FEW150 BKN220 M09/M14 A2951 RMK AC1CI4 SLP998 =
2018-03-19 00:00 METAR CYYG 190000Z 26004KT 15SM FEW030 FEW150 BKN220 M08/M14 A2951 RMK SC1AC1CI4
                 SC TR SLP000 =
2018-03-18 23:00 METAR CYYG 182300Z 30004KT 15SM FEW030 FEW160 BKN210 M08/M14 A2951 RMK SC1AC1CI4
                 SLP998 =
2018-03-18 22:00 METAR CYYG 182200Z 33007KT 15SM FEW030 FEW100 SCT260 M07/M14 A2951 RMK CF1AC1CI3
                 CF TR AC TR CC ASOCTD SLP997 =
2018-03-18 21:00 METAR CYYG 182100Z 31013G19KT 15SM FEW035 FEW260 M06/M15 A2950 RMK CF1CI2 CF TR
                 CC ASOCTD SLP993 =
2018-03-18 20:00 METAR CYYG 182000Z 32011G18KT 15SM FEW030 BKN230 M07/M15 A2950 RMK SC1CI5 SC TR
                 CC ASOCTD SLP994 =
2018-03-18 19:00 METAR CYYG 181900Z 31010G16KT 15SM FEW029 BKN180 M07/M15 A2950 RMK SC1CI6 SC TR
                 CC ASOCTD SLP995 =
2018-03-18 18:00 METAR CYYG 181800Z 28008G16KT 15SM FEW030 SCT160 BKN260 M07/M14 A2951 RMK
                 CU2AC2CI2 SLP997 =
2018-03-18 17:00 METAR CYYG 181700Z 28012G18KT 15SM SCT028 BKN160 BKN260 M08/M15 A2952 RMK
                 SC3AC2CI1 CU ASOCTD SLP003 =
2018-03-18 16:00 METAR CYYG 181600Z 30010G18KT 15SM BKN028 BKN160 M08/M14 A2953 RMK SC5AC1 AC TR
                 SLP005 =
2018-03-18 15:00 METAR CYYG 181500Z 30011G16KT 260V330 15SM SCT025 BKN220 M07/M14 A2953 RMK
                 SC4CI1 CC ASOCTD SLP005 =
2018-03-18 14:00 METAR CYYG 181400Z 31013KT 15SM FEW025 SCT100 BKN230 M08/M14 A2953 RMK SC2AC1CI3
                 SLP005 =
2018-03-18 13:00 METAR CYYG 181300Z 30011G17KT 270V340 15SM FEW024 SCT260 M08/M14 A2952 RMK
                 SC2CI2 CC ASOCTD SLP003 =
2018-03-18 12:00 METAR CYYG 181200Z 30013G22KT 15SM FEW018 SCT024 BKN220 M09/M14 A2950 RMK
                 SC1SC2CI3 SLP996 =
2018-03-18 11:00 METAR CYYG 181100Z 30011KT 15SM FEW021 BKN041 BKN260 M08/M13 A2949 RMK SC2SC4CI1
                 CI TR SLP990 =
2018-03-18 10:00 METAR CYYG 181000Z 29010G15KT 15SM BKN043 M08/M13 A2947 RMK SC7 SLP983 =
2018-03-18 09:00 METAR CYYG 180900Z 29010G16KT 15SM FEW025 SCT110 BKN210 M08/M13 A2945 RMK
                 SC1AC3CI3 SLP977 =
2018-03-18 08:00 METAR CYYG 180800Z 28010G15KT 15SM FEW024 BKN110 OVC170 M09/M12 A2944 RMK
                 SC2AC4AC2 SLP974 =
2018-03-18 07:27 METAR CYYG 180727Z 29009G16KT 15SM SCT024 OVC170 M09/M12 A2943 RMK SC4AC4 SLP972
2018-03-18 07:00 METAR CYYG 180700Z 28010G15KT 15SM -SN OVC021 M09/M11 A2943 RMK SC8 SLP971 =
2018-03-18 06:00 METAR CYYG 180600Z 29009G16KT 15SM -SN OVC015 M08/M11 A2943 RMK SC8 SLP970 =
2018-03-18 05:42 METAR CYYG 180542Z 29012KT 15SM -SN OVC014 M08/M11 A2943 RMK SC8 SLP969 =
2018-03-18 05:00 METAR CYYG 180500Z 29011G16KT 15SM SCT014 OVC070 M09/M12 A2942 RMK SC4AC4 SLP967
2018-03-18 04:00 METAR CYYG 180400Z 30010G19KT 15SM BKN090 BKN130 M09/M13 A2941 RMK AC5AC2 SLP963
2018-03-18 03:00 METAR CYYG 180300Z 29012G21KT 15SM BKN074 M09/M13 A2940 RMK AC6 SLP960 =
2018-03-18 02:30 METAR CYYG 180230Z 30014G21KT 15SM BKN070 M09/M13 A2940 RMK AC7 SLP960 =
2018-03-18 02:00 METAR CYYG 180200Z 30012G25KT 12SM -SN FEW064 BKN070 M08/M13 A2939 RMK SC2AC5
                 SLP957 =
2018-03-18 01:42 METAR CYYG 180142Z 30016G23KT 10SM -SN FEW062 BKN070 M08/M13 A2939 RMK SC2AC4
                 SLP956 =

Support USWX by starting your Amazon purchase here.